sensor_id;sensor_type;location;lat;lon;timestamp;pressure;altitude;pressure_sealevel;temperature;humidity
55044;BME280;54902;50.420;18.854;2024-01-15T00:00:21;99472.48;;;1.02;78.24
55044;BME280;54902;50.420;18.854;2024-01-15T00:00:52;99467.09;;;1.02;78.23
55044;BME280;54902;50.420;18.854;2024-01-15T00:01:23;99461.72;;;1.02;78.24
55044;BME280;54902;50.420;18.854;2024-01-15T00:01:54;99470.74;;;1.01;78.24
55044;BME280;54902;50.420;18.854;2024-01-15T00:02:25;99465.25;;;1.03;78.24
55044;BME280;54902;50.420;18.854;2024-01-15T00:02:56;99461.72;;;1.02;78.25
55044;BME280;54902;50.420;18.854;2024-01-15T00:03:27;99460.00;;;1.01;78.25
55044;BME280;54902;50.420;18.854;2024-01-15T00:03:59;99461.72;;;1.02;78.23
55044;BME280;54902;50.420;18.854;2024-01-15T00:04:30;99456.45;;;1.01;78.24
55044;BME280;54902;50.420;18.854;2024-01-15T00:05:01;99465.37;;;1.01;78.23
55044;BME280;54902;50.420;18.854;2024-01-15T00:05:32;99455.46;;;1.02;78.17
55044;BME280;54902;50.420;18.854;2024-01-15T00:06:03;99459.14;;;1.01;78.19
55044;BME280;54902;50.420;18.854;2024-01-15T00:06:34;99456.34;;;1.02;78.21
55044;BME280;54902;50.420;18.854;2024-01-15T00:07:09;99460.00;;;1.01;78.20
55044;BME280;54902;50.420;18.854;2024-01-15T00:07:40;99466.22;;;1.02;78.21
55044;BME280;54902;50.420;18.854;2024-01-15T00:08:11;99460.00;;;1.01;78.18
55044;BME280;54902;50.420;18.854;2024-01-15T00:08:42;99454.62;;;1.01;78.21
55044;BME280;54902;50.420;18.854;2024-01-15T00:09:13;99458.25;;;1.00;78.19
55044;BME280;54902;50.420;18.854;2024-01-15T00:09:44;99457.30;;;1.01;78.19
55044;BME280;54902;50.420;18.854;2024-01-15T00:10:15;99451.93;;;1.01;78.20
55044;BME280;54902;50.420;18.854;2024-01-15T00:10:45;99454.62;;;1.01;78.20
55044;BME280;54902;50.420;18.854;2024-01-15T00:11:16;99453.77;;;1.01;78.18
55044;BME280;54902;50.420;18.854;2024-01-15T00:11:47;99452.88;;;1.00;78.18
55044;BME280;54902;50.420;18.854;2024-01-15T00:12:18;99451.93;;;1.01;78.18
55044;BME280;54902;50.420;18.854;2024-01-15T00:12:49;99447.51;;;1.00;78.18
55044;BME280;54902;50.420;18.854;2024-01-15T00:13:20;99449.23;;;1.01;78.18
55044;BME280;54902;50.420;18.854;2024-01-15T00:13:51;99443.01;;;1.01;78.21
55044;BME280;54902;50.420;18.854;2024-01-15T00:14:23;99452.88;;;1.00;78.21
55044;BME280;54902;50.420;18.854;2024-01-15T00:14:54;99445.70;;;1.01;78.19
55044;BME280;54902;50.420;18.854;2024-01-15T00:15:25;99444.81;;;1.00;78.18
55044;BME280;54902;50.420;18.854;2024-01-15T00:15:58;99428.80;;;0.99;78.20
55044;BME280;54902;50.420;18.854;2024-01-15T00:16:29;99447.51;;;1.00;78.16
55044;BME280;54902;50.420;18.854;2024-01-15T00:17:00;99441.17;;;1.01;78.15
55044;BME280;54902;50.420;18.854;2024-01-15T00:17:31;99444.81;;;1.00;78.13
55044;BME280;54902;50.420;18.854;2024-01-15T00:18:02;99436.76;;;1.00;78.10
55044;BME280;54902;50.420;18.854;2024-01-15T00:18:33;99435.02;;;0.99;78.06
55044;BME280;54902;50.420;18.854;2024-01-15T00:19:04;99431.38;;;1.00;78.06
55044;BME280;54902;50.420;18.854;2024-01-15T00:19:35;99428.70;;;1.00;78.06
55044;BME280;54902;50.420;18.854;2024-01-15T00:20:07;99435.91;;;1.00;78.07
55044;BME280;54902;50.420;18.854;2024-01-15T00:20:38;99428.70;;;1.00;78.06
55044;BME280;54902;50.420;18.854;2024-01-15T00:21:09;99435.02;;;0.99;78.06
55044;BME280;54902;50.420;18.854;2024-01-15T00:21:40;99423.42;;;0.99;78.05
55044;BME280;54902;50.420;18.854;2024-01-15T00:22:11;99430.54;;;1.00;78.03
55044;BME280;54902;50.420;18.854;2024-01-15T00:22:42;99429.65;;;0.99;78.03
55044;BME280;54902;50.420;18.854;2024-01-15T00:23:13;99433.22;;;1.00;78.02
55044;BME280;54902;50.420;18.854;2024-01-15T00:23:44;99429.65;;;0.99;78.01
55044;BME280;54902;50.420;18.854;2024-01-15T00:24:16;99420.63;;;1.00;78.02
55044;BME280;54902;50.420;18.854;2024-01-15T00:24:47;99424.27;;;0.99;78.01
55044;BME280;54902;50.420;18.854;2024-01-15T00:25:18;99424.38;;;0.98;78.01
55044;BME280;54902;50.420;18.854;2024-01-15T00:25:50;99427.95;;;0.98;78.02
55044;BME280;54902;50.420;18.854;2024-01-15T00:26:22;99410.95;;;0.98;78.01
55044;BME280;54902;50.420;18.854;2024-01-15T00:26:53;99424.38;;;0.98;78.03
55044;BME280;54902;50.420;18.854;2024-01-15T00:27:24;99422.57;;;0.98;78.03
55044;BME280;54902;50.420;18.854;2024-01-15T00:27:55;99417.20;;;0.98;78.05
55044;BME280;54902;50.420;18.854;2024-01-15T00:28:26;99417.20;;;0.98;78.04
55044;BME280;54902;50.420;18.854;2024-01-15T00:28:57;99411.82;;;0.98;78.03
55044;BME280;54902;50.420;18.854;2024-01-15T00:29:28;99405.56;;;0.98;78.02
55044;BME280;54902;50.420;18.854;2024-01-15T00:29:59;99412.77;;;0.97;78.03
55044;BME280;54902;50.420;18.854;2024-01-15T00:30:30;99408.25;;;0.98;78.01
55044;BME280;54902;50.420;18.854;2024-01-15T00:31:00;99417.20;;;0.98;78.01
55044;BME280;54902;50.420;18.854;2024-01-15T00:31:31;99413.63;;;0.98;78.00
55044;BME280;54902;50.420;18.854;2024-01-15T00:32:02;99415.47;;;0.97;78.03
55044;BME280;54902;50.420;18.854;2024-01-15T00:32:33;99423.53;;;0.97;78.00
55044;BME280;54902;50.420;18.854;2024-01-15T00:33:04;99418.16;;;0.97;78.01
55044;BME280;54902;50.420;18.854;2024-01-15T00:33:36;99419.99;;;0.97;78.00
55044;BME280;54902;50.420;18.854;2024-01-15T00:34:07;99426.22;;;0.97;78.00
55044;BME280;54902;50.420;18.854;2024-01-15T00:34:38;99420.84;;;0.97;77.99
55044;BME280;54902;50.420;18.854;2024-01-15T00:35:09;99420.84;;;0.97;78.01
55044;BME280;54902;50.420;18.854;2024-01-15T00:35:40;99419.99;;;0.97;78.00
55044;BME280;54902;50.420;18.854;2024-01-15T00:36:12;99421.80;;;0.96;78.00
55044;BME280;54902;50.420;18.854;2024-01-15T00:36:43;99415.47;;;0.97;78.00
55044;BME280;54902;50.420;18.854;2024-01-15T00:37:14;99410.09;;;0.97;77.99
55044;BME280;54902;50.420;18.854;2024-01-15T00:37:45;99417.30;;;0.97;77.98
55044;BME280;54902;50.420;18.854;2024-01-15T00:38:16;99419.11;;;0.96;77.98
55044;BME280;54902;50.420;18.854;2024-01-15T00:38:47;99410.09;;;0.97;77.94
55044;BME280;54902;50.420;18.854;2024-01-15T00:39:18;99418.27;;;0.96;77.96
55044;BME280;54902;50.420;18.854;2024-01-15T00:39:49;99406.55;;;0.97;77.95
55044;BME280;54902;50.420;18.854;2024-01-15T00:40:20;99417.30;;;0.97;77.95
55044;BME280;54902;50.420;18.854;2024-01-15T00:40:51;99413.74;;;0.96;77.94
55044;BME280;54902;50.420;18.854;2024-01-15T00:41:22;99419.11;;;0.96;77.94
55044;BME280;54902;50.420;18.854;2024-01-15T00:41:53;99413.74;;;0.96;77.95
55044;BME280;54902;50.420;18.854;2024-01-15T00:42:24;99411.05;;;0.96;77.96
55044;BME280;54902;50.420;18.854;2024-01-15T00:42:55;99411.05;;;0.96;77.95
55044;BME280;54902;50.420;18.854;2024-01-15T00:43:26;99419.99;;;0.97;77.95
55044;BME280;54902;50.420;18.854;2024-01-15T00:43:57;99410.20;;;0.96;77.95
55044;BME280;54902;50.420;18.854;2024-01-15T00:44:27;99417.38;;;0.95;77.96
55044;BME280;54902;50.420;18.854;2024-01-15T00:44:58;99411.05;;;0.96;77.96
55044;BME280;54902;50.420;18.854;2024-01-15T00:45:29;99408.36;;;0.96;77.96
55044;BME280;54902;50.420;18.854;2024-01-15T00:46:02;99406.63;;;0.95;77.95
55044;BME280;54902;50.420;18.854;2024-01-15T00:47:18;99416.42;;;0.96;77.96
55044;BME280;54902;50.420;18.854;2024-01-15T00:47:49;99406.55;;;0.97;77.96
55044;BME280;54902;50.420;18.854;2024-01-15T00:48:20;99409.24;;;0.97;77.95
55044;BME280;54902;50.420;18.854;2024-01-15T00:48:51;99402.14;;;0.96;77.94
55044;BME280;54902;50.420;18.854;2024-01-15T00:49:22;99412.77;;;0.97;77.95
55044;BME280;54902;50.420;18.854;2024-01-15T00:49:53;99407.52;;;0.96;77.95
55044;BME280;54902;50.420;18.854;2024-01-15T00:50:24;99409.24;;;0.97;77.93
55044;BME280;54902;50.420;18.854;2024-01-15T00:50:55;99402.98;;;0.96;77.93
55044;BME280;54902;50.420;18.854;2024-01-15T00:51:26;99402.14;;;0.96;77.92
55044;BME280;54902;50.420;18.854;2024-01-15T00:51:57;99402.98;;;0.96;77.93
55044;BME280;54902;50.420;18.854;2024-01-15T00:52:28;99408.25;;;0.98;77.93
55044;BME280;54902;50.420;18.854;2024-01-15T00:52:58;99396.76;;;0.96;77.94
55044;BME280;54902;50.420;18.854;2024-01-15T00:53:29;99397.61;;;0.96;77.92
55044;BME280;54902;50.420;18.854;2024-01-15T00:54:00;99395.80;;;0.97;77.92
55044;BME280;54902;50.420;18.854;2024-01-15T00:54:31;99400.30;;;0.96;77.87
55044;BME280;54902;50.420;18.854;2024-01-15T00:55:02;99398.49;;;0.97;77.87
55044;BME280;54902;50.420;18.854;2024-01-15T00:55:33;99392.23;;;0.96;77.90
55044;BME280;54902;50.420;18.854;2024-01-15T00:56:04;99403.87;;;0.97;77.88
55044;BME280;54902;50.420;18.854;2024-01-15T00:56:36;99390.43;;;0.97;77.88
55044;BME280;54902;50.420;18.854;2024-01-15T00:57:07;99371.62;;;0.97;77.89
55044;BME280;54902;50.420;18.854;2024-01-15T00:57:38;99385.90;;;0.97;77.87
55044;BME280;54902;50.420;18.854;2024-01-15T00:58:09;99388.59;;;0.97;77.87
55044;BME280;54902;50.420;18.854;2024-01-15T00:58:39;99388.59;;;0.97;77.83
55044;BME280;54902;50.420;18.854;2024-01-15T00:59:10;99384.16;;;0.96;77.82
55044;BME280;54902;50.420;18.854;2024-01-15T00:59:45;99393.96;;;0.97;77.80
55044;BME280;54902;50.420;18.854;2024-01-15T01:00:16;99388.59;;;0.97;77.80
55044;BME280;54902;50.420;18.854;2024-01-15T01:00:47;99382.44;;;0.95;77.81
55044;BME280;54902;50.420;18.854;2024-01-15T01:01:18;99377.84;;;0.97;77.82
55044;BME280;54902;50.420;18.854;2024-01-15T01:01:49;99388.59;;;0.97;77.82
55044;BME280;54902;50.420;18.854;2024-01-15T01:02:20;99383.22;;;0.97;77.83
55044;BME280;54902;50.420;18.854;2024-01-15T01:02:51;99379.75;;;0.95;77.81
55044;BME280;54902;50.420;18.854;2024-01-15T01:03:22;99379.57;;;0.98;77.82
55044;BME280;54902;50.420;18.854;2024-01-15T01:03:52;99383.22;;;0.97;77.81
55044;BME280;54902;50.420;18.854;2024-01-15T01:04:23;99384.06;;;0.98;77.79
55044;BME280;54902;50.420;18.854;2024-01-15T01:04:54;99379.57;;;0.98;77.78
55044;BME280;54902;50.420;18.854;2024-01-15T01:05:25;99375.15;;;0.97;77.77
55044;BME280;54902;50.420;18.854;2024-01-15T01:05:56;99371.50;;;0.98;77.75
55044;BME280;54902;50.420;18.854;2024-01-15T01:06:27;99369.77;;;0.97;77.74
55044;BME280;54902;50.420;18.854;2024-01-15T01:06:58;99367.94;;;0.98;77.77
55044;BME280;54902;50.420;18.854;2024-01-15T01:07:29;99368.82;;;0.98;77.74
55044;BME280;54902;50.420;18.854;2024-01-15T01:08:00;99366.13;;;0.98;77.74
55044;BME280;54902;50.420;18.854;2024-01-15T01:08:31;99366.13;;;0.98;77.75
55044;BME280;54902;50.420;18.854;2024-01-15T01:09:02;99363.44;;;0.98;77.75
55044;BME280;54902;50.420;18.854;2024-01-15T01:09:33;99366.13;;;0.98;77.75
55044;BME280;54902;50.420;18.854;2024-01-15T01:10:05;99372.36;;;0.99;77.75
55044;BME280;54902;50.420;18.854;2024-01-15T01:10:35;99357.19;;;0.98;77.74
55044;BME280;54902;50.420;18.854;2024-01-15T01:11:06;99371.50;;;0.98;77.75
55044;BME280;54902;50.420;18.854;2024-01-15T01:11:37;99358.06;;;0.98;77.75
55044;BME280;54902;50.420;18.854;2024-01-15T01:12:08;99359.87;;;0.98;77.75
55044;BME280;54902;50.420;18.854;2024-01-15T01:12:39;99363.44;;;0.98;77.75
55044;BME280;54902;50.420;18.854;2024-01-15T01:13:10;99363.44;;;0.98;77.75
55044;BME280;54902;50.420;18.854;2024-01-15T01:13:41;99366.13;;;0.98;77.71
55044;BME280;54902;50.420;18.854;2024-01-15T01:14:12;99361.60;;;0.99;77.69
55044;BME280;54902;50.420;18.854;2024-01-15T01:14:43;99364.29;;;0.99;77.69
55044;BME280;54902;50.420;18.854;2024-01-15T01:15:14;99361.60;;;0.99;77.71
55044;BME280;54902;50.420;18.854;2024-01-15T01:15:45;99353.54;;;0.99;77.71
55044;BME280;54902;50.420;18.854;2024-01-15T01:16:16;99351.71;;;0.99;77.69
55044;BME280;54902;50.420;18.854;2024-01-15T01:16:47;99352.70;;;0.98;77.68
55044;BME280;54902;50.420;18.854;2024-01-15T01:17:18;99358.91;;;0.99;77.69
55044;BME280;54902;50.420;18.854;2024-01-15T01:17:49;99354.38;;;0.99;77.70
55044;BME280;54902;50.420;18.854;2024-01-15T01:18:20;99352.58;;;1.00;77.71
55044;BME280;54902;50.420;18.854;2024-01-15T01:18:51;99356.23;;;0.99;77.69
55044;BME280;54902;50.420;18.854;2024-01-15T01:19:22;99351.71;;;0.99;77.70
55044;BME280;54902;50.420;18.854;2024-01-15T01:19:53;99358.06;;;0.98;77.71
55044;BME280;54902;50.420;18.854;2024-01-15T01:20:23;99348.16;;;0.99;77.70
55044;BME280;54902;50.420;18.854;2024-01-15T01:20:54;99350.85;;;0.99;77.69
55044;BME280;54902;50.420;18.854;2024-01-15T01:21:25;99338.26;;;0.99;77.69
55044;BME280;54902;50.420;18.854;2024-01-15T01:21:56;99341.94;;;0.98;77.67
55044;BME280;54902;50.420;18.854;2024-01-15T01:22:27;99345.37;;;1.00;77.67
55044;BME280;54902;50.420;18.854;2024-01-15T01:22:58;99343.64;;;0.99;77.66
55044;BME280;54902;50.420;18.854;2024-01-15T01:23:29;99341.94;;;0.98;77.66
55044;BME280;54902;50.420;18.854;2024-01-15T01:24:00;99338.26;;;0.99;77.64
55044;BME280;54902;50.420;18.854;2024-01-15T01:24:33;99343.64;;;0.99;77.63
55044;BME280;54902;50.420;18.854;2024-01-15T01:25:05;99335.57;;;0.99;77.63
55044;BME280;54902;50.420;18.854;2024-01-15T01:25:36;99343.64;;;0.99;77.63
55044;BME280;54902;50.420;18.854;2024-01-15T01:26:07;99338.26;;;0.99;77.65
55044;BME280;54902;50.420;18.854;2024-01-15T01:26:38;99331.93;;;1.00;77.67
55044;BME280;54902;50.420;18.854;2024-01-15T01:27:09;99341.84;;;1.00;77.66
55044;BME280;54902;50.420;18.854;2024-01-15T01:27:40;99340.95;;;0.99;77.66
55044;BME280;54902;50.420;18.854;2024-01-15T01:28:11;99340.10;;;0.99;77.65
55044;BME280;54902;50.420;18.854;2024-01-15T01:28:42;99338.26;;;0.99;77.63
55044;BME280;54902;50.420;18.854;2024-01-15T01:29:13;99341.84;;;1.00;77.63
55044;BME280;54902;50.420;18.854;2024-01-15T01:29:43;99333.77;;;1.00;77.61
55044;BME280;54902;50.420;18.854;2024-01-15T01:30:14;99328.39;;;1.00;77.59
55044;BME280;54902;50.420;18.854;2024-01-15T01:30:45;99344.52;;;1.00;77.60
55044;BME280;54902;50.420;18.854;2024-01-15T01:31:16;99329.23;;;1.00;77.59
55044;BME280;54902;50.420;18.854;2024-01-15T01:31:47;99340.95;;;0.99;77.59
55044;BME280;54902;50.420;18.854;2024-01-15T01:32:18;99343.64;;;0.99;77.60
55044;BME280;54902;50.420;18.854;2024-01-15T01:32:49;99341.84;;;1.00;77.58
55044;BME280;54902;50.420;18.854;2024-01-15T01:33:20;99324.82;;;0.99;77.57
55044;BME280;54902;50.420;18.854;2024-01-15T01:33:51;99334.61;;;1.00;77.58
55044;BME280;54902;50.420;18.854;2024-01-15T01:34:22;99327.51;;;0.99;77.58
55044;BME280;54902;50.420;18.854;2024-01-15T01:34:53;99334.61;;;1.00;77.58
55044;BME280;54902;50.420;18.854;2024-01-15T01:35:24;99331.18;;;0.98;77.58
55044;BME280;54902;50.420;18.854;2024-01-15T01:35:55;99328.39;;;1.00;77.46
55044;BME280;54902;50.420;18.854;2024-01-15T01:36:27;99333.77;;;1.00;77.59
55044;BME280;54902;50.420;18.854;2024-01-15T01:36:57;99328.51;;;0.98;77.58
55044;BME280;54902;50.420;18.854;2024-01-15T01:37:28;99324.82;;;0.99;77.58
55044;BME280;54902;50.420;18.854;2024-01-15T01:37:59;99327.51;;;0.99;77.59
55044;BME280;54902;50.420;18.854;2024-01-15T01:38:30;99292.13;;;0.80;77.56
55044;BME280;54902;50.420;18.854;2024-01-15T01:39:01;99319.44;;;0.99;77.59
55044;BME280;54902;50.420;18.854;2024-01-15T01:39:32;99327.51;;;0.99;77.59
55044;BME280;54902;50.420;18.854;2024-01-15T01:40:04;99320.44;;;0.98;77.59
55044;BME280;54902;50.420;18.854;2024-01-15T01:40:35;99323.98;;;0.99;77.55
55044;BME280;54902;50.420;18.854;2024-01-15T01:41:06;99318.60;;;0.99;77.53
55044;BME280;54902;50.420;18.854;2024-01-15T01:41:38;99315.05;;;0.98;77.51
55044;BME280;54902;50.420;18.854;2024-01-15T01:42:09;99315.91;;;0.99;77.50
55044;BME280;54902;50.420;18.854;2024-01-15T01:42:40;99311.38;;;0.99;77.49
55044;BME280;54902;50.420;18.854;2024-01-15T01:43:11;99316.76;;;0.99;77.49
55044;BME280;54902;50.420;18.854;2024-01-15T01:43:43;99306.00;;;0.99;77.49
55044;BME280;54902;50.420;18.854;2024-01-15T01:44:14;99309.69;;;0.98;77.50
55044;BME280;54902;50.420;18.854;2024-01-15T01:44:45;99315.05;;;0.98;77.50
55044;BME280;54902;50.420;18.854;2024-01-15T01:45:16;99308.70;;;0.99;77.49
55044;BME280;54902;50.420;18.854;2024-01-15T01:45:47;99309.69;;;0.98;77.50
55044;BME280;54902;50.420;18.854;2024-01-15T01:46:18;99309.69;;;0.98;77.50
55044;BME280;54902;50.420;18.854;2024-01-15T01:46:49;99307.85;;;0.99;77.49
55044;BME280;54902;50.420;18.854;2024-01-15T01:47:20;99298.93;;;0.98;77.48
55044;BME280;54902;50.420;18.854;2024-01-15T01:47:51;99312.38;;;0.98;77.46
55044;BME280;54902;50.420;18.854;2024-01-15T01:48:23;99307.00;;;0.98;77.49
55044;BME280;54902;50.420;18.854;2024-01-15T01:48:58;99301.63;;;0.98;77.48
55044;BME280;54902;50.420;18.854;2024-01-15T01:49:36;99301.63;;;0.98;77.45
55044;BME280;54902;50.420;18.854;2024-01-15T01:50:08;99302.47;;;0.99;77.47
55044;BME280;54902;50.420;18.854;2024-01-15T01:50:39;99297.21;;;0.97;77.46
55044;BME280;54902;50.420;18.854;2024-01-15T01:51:11;99303.43;;;0.98;77.44
55044;BME280;54902;50.420;18.854;2024-01-15T01:51:43;99299.05;;;0.97;77.47
55044;BME280;54902;50.420;18.854;2024-01-15T01:52:14;99295.48;;;0.96;77.46
55044;BME280;54902;50.420;18.854;2024-01-15T01:52:45;99294.52;;;0.97;77.46
55044;BME280;54902;50.420;18.854;2024-01-15T01:53:16;99296.35;;;0.97;77.45
55044;BME280;54902;50.420;18.854;2024-01-15T01:53:48;99302.58;;;0.97;77.43
55044;BME280;54902;50.420;18.854;2024-01-15T01:54:20;99300.85;;;0.96;77.40
55044;BME280;54902;50.420;18.854;2024-01-15T01:54:52;99295.48;;;0.96;77.40
55044;BME280;54902;50.420;18.854;2024-01-15T01:55:25;99303.43;;;0.98;77.40
55044;BME280;54902;50.420;18.854;2024-01-15T01:55:57;99287.41;;;0.96;77.40
55044;BME280;54902;50.420;18.854;2024-01-15T01:56:29;99301.73;;;0.97;77.40
55044;BME280;54902;50.420;18.854;2024-01-15T01:57:02;99290.98;;;0.97;77.39
55044;BME280;54902;50.420;18.854;2024-01-15T01:57:34;99291.05;;;0.95;77.34
55044;BME280;54902;50.420;18.854;2024-01-15T01:58:06;99294.63;;;0.96;77.37
55044;BME280;54902;50.420;18.854;2024-01-15T01:58:37;99295.48;;;0.96;77.37
55044;BME280;54902;50.420;18.854;2024-01-15T01:59:09;99295.48;;;0.96;77.38
55044;BME280;54902;50.420;18.854;2024-01-15T01:59:41;99282.15;;;0.95;77.37
55044;BME280;54902;50.420;18.854;2024-01-15T02:00:13;99284.73;;;0.96;77.35
55044;BME280;54902;50.420;18.854;2024-01-15T02:00:44;99290.10;;;0.96;77.33
55044;BME280;54902;50.420;18.854;2024-01-15T02:01:16;99282.99;;;0.95;77.29
55044;BME280;54902;50.420;18.854;2024-01-15T02:01:48;99286.56;;;0.96;77.33
55044;BME280;54902;50.420;18.854;2024-01-15T02:02:20;99291.05;;;0.95;77.27
55044;BME280;54902;50.420;18.854;2024-01-15T02:02:52;99292.79;;;0.96;77.29
55044;BME280;54902;50.420;18.854;2024-01-15T02:03:22;99294.63;;;0.96;77.29
55044;BME280;54902;50.420;18.854;2024-01-15T02:03:54;99285.69;;;0.95;77.29
55044;BME280;54902;50.420;18.854;2024-01-15T02:04:27;99291.05;;;0.95;77.28
55044;BME280;54902;50.420;18.854;2024-01-15T02:04:58;99293.75;;;0.95;77.28
55044;BME280;54902;50.420;18.854;2024-01-15T02:05:30;99293.75;;;0.95;77.24
55044;BME280;54902;50.420;18.854;2024-01-15T02:06:04;99291.05;;;0.95;77.22
55044;BME280;54902;50.420;18.854;2024-01-15T02:06:35;99285.69;;;0.95;77.20
55044;BME280;54902;50.420;18.854;2024-01-15T02:07:06;99288.37;;;0.95;77.22
55044;BME280;54902;50.420;18.854;2024-01-15T02:07:37;99291.05;;;0.95;77.23
55044;BME280;54902;50.420;18.854;2024-01-15T02:08:09;99288.37;;;0.95;77.22
55044;BME280;54902;50.420;18.854;2024-01-15T02:08:39;99293.75;;;0.95;77.23
55044;BME280;54902;50.420;18.854;2024-01-15T02:09:14;99293.75;;;0.95;77.23
55044;BME280;54902;50.420;18.854;2024-01-15T02:09:45;99293.75;;;0.95;77.23
55044;BME280;54902;50.420;18.854;2024-01-15T02:10:17;99299.13;;;0.95;77.25
55044;BME280;54902;50.420;18.854;2024-01-15T02:10:48;99299.13;;;0.95;77.24
55044;BME280;54902;50.420;18.854;2024-01-15T02:11:19;99296.44;;;0.95;77.24
55044;BME280;54902;50.420;18.854;2024-01-15T02:11:50;99292.90;;;0.95;77.27
55044;BME280;54902;50.420;18.854;2024-01-15T02:12:21;99299.13;;;0.95;77.27
55044;BME280;54902;50.420;18.854;2024-01-15T02:12:52;99299.13;;;0.95;77.27
55044;BME280;54902;50.420;18.854;2024-01-15T02:13:23;99300.85;;;0.96;77.25
55044;BME280;54902;50.420;18.854;2024-01-15T02:13:54;99293.75;;;0.95;77.24
55044;BME280;54902;50.420;18.854;2024-01-15T02:14:25;99306.23;;;0.96;77.22
55044;BME280;54902;50.420;18.854;2024-01-15T02:14:56;99300.00;;;0.96;77.19
55044;BME280;54902;50.420;18.854;2024-01-15T02:15:27;99295.04;;;0.90;77.36
55044;BME280;54902;50.420;18.854;2024-01-15T02:15:58;99304.50;;;0.95;77.23
55044;BME280;54902;50.420;18.854;2024-01-15T02:16:29;99308.06;;;0.96;77.22
55044;BME280;54902;50.420;18.854;2024-01-15T02:17:00;99307.12;;;0.97;77.21
55044;BME280;54902;50.420;18.854;2024-01-15T02:17:31;99295.48;;;0.96;77.21
55044;BME280;54902;50.420;18.854;2024-01-15T02:18:04;99300.85;;;0.96;77.18
55044;BME280;54902;50.420;18.854;2024-01-15T02:18:41;99295.48;;;0.96;77.18
55044;BME280;54902;50.420;18.854;2024-01-15T02:19:16;99291.05;;;0.95;77.21
55044;BME280;54902;50.420;18.854;2024-01-15T02:19:47;99285.69;;;0.95;77.22
55044;BME280;54902;50.420;18.854;2024-01-15T02:20:18;99290.10;;;0.96;77.20
55044;BME280;54902;50.420;18.854;2024-01-15T02:20:49;99291.05;;;0.95;77.21
55044;BME280;54902;50.420;18.854;2024-01-15T02:21:20;99287.53;;;0.95;77.21
55044;BME280;54902;50.420;18.854;2024-01-15T02:21:51;99280.31;;;0.95;77.21
55044;BME280;54902;50.420;18.854;2024-01-15T02:22:22;99278.61;;;0.94;77.17
55044;BME280;54902;50.420;18.854;2024-01-15T02:22:53;99285.69;;;0.95;77.20
55044;BME280;54902;50.420;18.854;2024-01-15T02:23:24;99282.99;;;0.95;77.19
55044;BME280;54902;50.420;18.854;2024-01-15T02:23:55;99277.63;;;0.95;77.21
55044;BME280;54902;50.420;18.854;2024-01-15T02:24:26;99290.10;;;0.96;77.21
55044;BME280;54902;50.420;18.854;2024-01-15T02:24:57;99280.31;;;0.95;77.20
55044;BME280;54902;50.420;18.854;2024-01-15T02:25:28;99287.53;;;0.95;77.21
55044;BME280;54902;50.420;18.854;2024-01-15T02:25:59;99282.99;;;0.95;77.22
55044;BME280;54902;50.420;18.854;2024-01-15T02:26:30;99276.77;;;0.95;77.21
55044;BME280;54902;50.420;18.854;2024-01-15T02:27:01;99286.67;;;0.94;77.22
55044;BME280;54902;50.420;18.854;2024-01-15T02:27:32;99288.37;;;0.95;77.21
55044;BME280;54902;50.420;18.854;2024-01-15T02:28:04;99288.48;;;0.94;77.20
55044;BME280;54902;50.420;18.854;2024-01-15T02:28:35;99286.67;;;0.94;77.16
55044;BME280;54902;50.420;18.854;2024-01-15T02:29:07;99282.27;;;0.93;77.14
55044;BME280;54902;50.420;18.854;2024-01-15T02:29:41;99278.61;;;0.94;77.13
55044;BME280;54902;50.420;18.854;2024-01-15T02:30:12;99284.95;;;0.93;77.16
55044;BME280;54902;50.420;18.854;2024-01-15T02:30:44;99284.95;;;0.93;77.15
55044;BME280;54902;50.420;18.854;2024-01-15T02:31:15;99275.16;;;0.92;77.16
55044;BME280;54902;50.420;18.854;2024-01-15T02:31:46;99274.20;;;0.93;77.18
55044;BME280;54902;50.420;18.854;2024-01-15T02:32:16;99272.48;;;0.92;77.17
55044;BME280;54902;50.420;18.854;2024-01-15T02:32:47;99284.10;;;0.93;77.17
55044;BME280;54902;50.420;18.854;2024-01-15T02:33:18;99279.57;;;0.93;77.18
55044;BME280;54902;50.420;18.854;2024-01-15T02:33:49;99272.48;;;0.92;77.16
55044;BME280;54902;50.420;18.854;2024-01-15T02:34:20;99276.11;;;0.91;77.17
55044;BME280;54902;50.420;18.854;2024-01-15T02:34:51;99278.73;;;0.93;77.14
55044;BME280;54902;50.420;18.854;2024-01-15T02:35:22;99272.48;;;0.92;77.14
55044;BME280;54902;50.420;18.854;2024-01-15T02:35:53;99272.48;;;0.92;77.14
55044;BME280;54902;50.420;18.854;2024-01-15T02:36:24;99272.48;;;0.92;77.14
55044;BME280;54902;50.420;18.854;2024-01-15T02:36:54;99271.62;;;0.92;77.13
55044;BME280;54902;50.420;18.854;2024-01-15T02:37:25;99276.99;;;0.92;77.13
55044;BME280;54902;50.420;18.854;2024-01-15T02:37:56;99267.31;;;0.89;77.13
55044;BME280;54902;50.420;18.854;2024-01-15T02:38:27;99270.73;;;0.91;77.13
55044;BME280;54902;50.420;18.854;2024-01-15T02:38:58;99269.89;;;0.91;77.13
55044;BME280;54902;50.420;18.854;2024-01-15T02:39:29;99269.89;;;0.91;77.14
55044;BME280;54902;50.420;18.854;2024-01-15T02:40:00;99269.04;;;0.90;77.13
55044;BME280;54902;50.420;18.854;2024-01-15T02:40:31;99269.04;;;0.90;77.14
55044;BME280;54902;50.420;18.854;2024-01-15T02:41:03;99258.30;;;0.90;77.13
55044;BME280;54902;50.420;18.854;2024-01-15T02:41:34;99263.66;;;0.90;77.14
55044;BME280;54902;50.420;18.854;2024-01-15T02:42:05;99264.52;;;0.91;77.14
55044;BME280;54902;50.420;18.854;2024-01-15T02:42:36;99260.10;;;0.90;77.14
55044;BME280;54902;50.420;18.854;2024-01-15T02:43:07;99260.98;;;0.90;77.15
55044;BME280;54902;50.420;18.854;2024-01-15T02:43:38;99264.63;;;0.89;77.15
55044;BME280;54902;50.420;18.854;2024-01-15T02:44:08;99261.94;;;0.89;77.16
55044;BME280;54902;50.420;18.854;2024-01-15T02:44:39;99260.21;;;0.88;77.15
55044;BME280;54902;50.420;18.854;2024-01-15T02:45:10;99256.57;;;0.89;77.15
55044;BME280;54902;50.420;18.854;2024-01-15T02:45:41;99256.57;;;0.89;77.16
55044;BME280;54902;50.420;18.854;2024-01-15T02:46:12;99255.68;;;0.89;77.17